Flood From: 21-02-2018 18:00 Until: 22-02-2018 16:00 warning for: Flood Level: Yellow info button

Although rather usual in this region, locally or potentially dangerous phenomena are expected. (such as local winds, summer thunderstorms, rising streams or high waves) Be aware and pay attention to the latest weather updates, especially if you carry out activities exposed to weather or close to a stream or shoreline. 


Meteo18 Weather Cam more information Meteo18 Weather Cam


Thunder radar more information blitzortung!


Rain radar more information rain snow radar


Visit our other weather sites:

Template documentation
and downloads

And another site



Weather Underground History page Text

Daily Summary for June 5, 2017 Units:  Metric    English   Both
« Previous Day
Next Day »
Daily Weekly Monthly Yearly Custom
  High: Low: Average:
Temperature: -17.8 °C -11.8 °C -8.4 °C
Dew Point: -17.8 °C -12.4 °C -11.7 °C
Humidity: Humidity % 46 % 70 %
Wind Speed: 0 km/h 0 km/h 6.9 km/h
Wind Gust: 0 km/h - -
Wind:- - SW
Pressure: 0 hPa 34154.6 hPa -
Precipitation: 0 mm    
Historical Graphs
 
 
Tabular Data for June 5, 2017
Time Temperature Dew Point Pressure Wind Wind Speed Wind Gust Humidity Rainfall Rate (Hourly)
-17.8 °C -17.8 °C 0 hPa Calm     Humidity % 0 mm
00:02 -11.1 °C -12.1 °C 34486.4 hPa Calm     89 % 0 mm
00:07 -11 °C -12.1 °C 34486.4 hPa Calm     88 % 0 mm
00:12 -11.1 °C -12.1 °C 34486.4 hPa Calm     88 % 0 mm
00:17 -11.1 °C -12.1 °C 34486.4 hPa Calm     88 % 0 mm
00:22 -11.2 °C -12.2 °C 34486.4 hPa Calm     89 % 0 mm
00:32 -11.3 °C -12.2 °C 34486.4 hPa Calm     90 % 0 mm
00:42 -11.3 °C -12.1 °C 34486.4 hPa Calm     91 % 0 mm
00:47 -11.3 °C -12.1 °C 34486.4 hPa Calm     91 % 0 mm
00:52 -11.4 °C -12.2 °C 34486.4 hPa Calm     91 % 0 mm
00:57 -11.5 °C -12.3 °C 34486.4 hPa Calm     91 % 0 mm
01:02 -11.5 °C -12.3 °C 34486.4 hPa Calm     91 % 0 mm
01:07 -11.6 °C -12.3 °C 34486.4 hPa Calm     91 % 0 mm
01:12 -11.6 °C -12.3 °C 34486.4 hPa Calm     92 % 0 mm
01:17 -11.5 °C -12.2 °C 34486.4 hPa Calm     92 % 0 mm
01:22 -11.4 °C -12.2 °C 34486.4 hPa Calm     92 % 0 mm
01:27 -11.4 °C -12.2 °C 34486.4 hPa Calm     91 % 0 mm
01:32 -11.4 °C -12.2 °C 34486.4 hPa Calm     92 % 0 mm
01:37 -11.4 °C -12.2 °C 34486.4 hPa Calm     92 % 0 mm
01:42 -11.4 °C -12.2 °C 34486.4 hPa Calm     92 % 0 mm
01:47 -11.4 °C -12.2 °C 34486.4 hPa Calm     91 % 0 mm
01:52 -11.3 °C -12.1 °C 34486.4 hPa Calm     91 % 0 mm
02:02 -11.3 °C -12.1 °C 34486.4 hPa Calm     91 % 0 mm
02:12 -11.3 °C -12.1 °C 34476.3 hPa Calm     91 % 0 mm
02:17 -11.3 °C -12.1 °C 34476.3 hPa Calm     91 % 0 mm
02:22 -11.2 °C -12 °C 34476.3 hPa Calm     91 % 0 mm
02:32 -11.3 °C -12.1 °C 34476.3 hPa Calm     91 % 0 mm
02:37 -11.3 °C -12.1 °C 34476.3 hPa Calm     91 % 0 mm
02:42 -11.3 °C -12.1 °C 34476.3 hPa Calm     91 % 0 mm
02:47 -11.3 °C -12.1 °C 34476.3 hPa Calm     91 % 0 mm
02:52 -11.3 °C -12.1 °C 34476.3 hPa Calm     91 % 0 mm
02:57 -11.3 °C -12.1 °C 34476.3 hPa Calm     91 % 0 mm
03:02 -11.3 °C -12.1 °C 34462.7 hPa Calm     91 % 0 mm
03:07 -11.3 °C -12.1 °C 34476.3 hPa Calm     91 % 0 mm
03:12 -11.3 °C -12.1 °C 34476.3 hPa Calm     91 % 0 mm
03:17 -11.4 °C -12.2 °C 34462.7 hPa Calm     91 % 0 mm
03:22 -11.4 °C -12.2 °C 34462.7 hPa Calm     92 % 0 mm
03:32 -11.5 °C -12.2 °C 34462.7 hPa Calm     92 % 0 mm
03:42 -11.6 °C -12.3 °C 34462.7 hPa Calm     92 % 0 mm
03:47 -11.6 °C -12.3 °C 34462.7 hPa Calm     92 % 0 mm
03:52 -11.7 °C -12.3 °C 34462.7 hPa Calm     92 % 0 mm
03:57 -11.7 °C -12.3 °C 34462.7 hPa Calm     92 % 0 mm
04:02 -11.7 °C -12.4 °C 34462.7 hPa Calm     92 % 0 mm
04:07 -11.7 °C -12.3 °C 34462.7 hPa Calm     93 % 0 mm
04:12 -11.8 °C -12.4 °C 34462.7 hPa Calm     93 % 0 mm
04:17 -11.7 °C -12.3 °C 34462.7 hPa Calm     93 % 0 mm
04:22 -11.7 °C -12.3 °C 34462.7 hPa Calm     93 % 0 mm
04:27 -11.7 °C -12.4 °C 34452.6 hPa Calm     92 % 0 mm
04:32 -11.7 °C -12.4 °C 34452.6 hPa Calm     92 % 0 mm
04:37 -11.8 °C -12.4 °C 34452.6 hPa Calm     92 % 0 mm
04:42 -11.8 °C -12.4 °C 34462.7 hPa Calm     93 % 0 mm
04:47 -11.8 °C -12.4 °C 34462.7 hPa Calm     93 % 0 mm
04:52 -11.8 °C -12.4 °C 34452.6 hPa Calm     93 % 0 mm
04:57 -11.8 °C -12.4 °C 34452.6 hPa Calm     93 % 0 mm
05:02 -11.8 °C -12.4 °C 34452.6 hPa Calm     93 % 0 mm
05:12 -11.8 °C -12.4 °C 34452.6 hPa Calm     93 % 0 mm
05:17 -11.8 °C -12.4 °C 34452.6 hPa Calm     93 % 0 mm
05:22 -11.8 °C -12.4 °C 34452.6 hPa Calm     93 % 0 mm
05:32 -11.7 °C -12.3 °C 34452.6 hPa Calm     93 % 0 mm
05:42 -11.7 °C -12.3 °C 34452.6 hPa Calm     93 % 0 mm
05:52 -11.6 °C -12.3 °C 34452.6 hPa Calm     92 % 0 mm
05:57 -11.7 °C -12.3 °C 34452.6 hPa Calm     92 % 0 mm
06:02 -11.7 °C -12.3 °C 34452.6 hPa Calm     92 % 0 mm
06:12 -11.7 °C -12.4 °C 34452.6 hPa Calm     92 % 0 mm
06:17 -11.7 °C -12.3 °C 34452.6 hPa Calm     93 % 0 mm
06:22 -11.8 °C -12.4 °C 34452.6 hPa Calm     93 % 0 mm
06:32 -11.8 °C -12.4 °C 34462.7 hPa Calm     93 % 0 mm
06:42 -11.8 °C -12.4 °C 34462.7 hPa Calm     93 % 0 mm
06:47 -11.7 °C -12.2 °C 34462.7 hPa Calm     94 % 0 mm
06:52 -11.7 °C -12.2 °C 34462.7 hPa Calm     94 % 0 mm
07:02 -11.7 °C -12.2 °C 34462.7 hPa Calm     94 % 0 mm
07:07 -11.6 °C -12.1 °C 34462.7 hPa Calm     94 % 0 mm
07:12 -11.6 °C -12.1 °C 34462.7 hPa Calm     94 % 0 mm
07:17 -11.6 °C -12.1 °C 34462.7 hPa Calm     94 % 0 mm
07:22 -11.5 °C -12 °C 34462.7 hPa Calm     94 % 0 mm
07:32 -11.3 °C -11.8 °C 34462.7 hPa Calm     94 % 0 mm
07:42 -10.9 °C -11.4 °C 34462.7 hPa Calm     94 % 0 mm
07:47 -10.7 °C -11.3 °C 34462.7 hPa Calm     93 % 0 mm
07:52 -10.7 °C -11.4 °C 34462.7 hPa Calm     92 % 0 mm
07:57 -10.6 °C -11.4 °C 34462.7 hPa Calm     91 % 0 mm
08:02 -10.5 °C -11.3 °C 34462.7 hPa Calm     91 % 0 mm
08:12 -10.1 °C -11.2 °C 34462.7 hPa Calm     88 % 0 mm
08:17 -9.9 °C -11.3 °C 34462.7 hPa Calm     85 % 0 mm
08:22 -9.8 °C -11.4 °C 34462.7 hPa Calm     83 % 0 mm
08:32 -8.7 °C -10.7 °C 34462.7 hPa Calm     80 % 0 mm
08:37 -8.5 °C -11 °C 34462.7 hPa Calm     75 % 0 mm
08:42 -8.5 °C -10.9 °C 34462.7 hPa Calm     76 % 0 mm
08:47 -8.6 °C -10.9 °C 34462.7 hPa Calm   2.6 km/h 76 % 0 mm
08:52 -8.6 °C -11.1 °C 34462.7 hPa Calm   2.6 km/h 75 % 0 mm
09:02 -8.7 °C -11.3 °C 34452.6 hPa SW 10.3 km/h 12.9 km/h 74 % 0 mm
09:12 -8.7 °C -11.2 °C 34452.6 hPa South 2.6 km/h 12.9 km/h 74 % 0 mm
09:17 -8.5 °C -11.1 °C 34452.6 hPa SSW 2.6 km/h 12.9 km/h 74 % 0 mm
09:22 -8.4 °C -11.2 °C 34452.6 hPa SSE 2.6 km/h 10.3 km/h 72 % 0 mm
09:27 -8.3 °C -11.2 °C 34452.6 hPa SW 7.7 km/h 10.3 km/h 71 % 0 mm
09:32 -8.2 °C -11.3 °C 34452.6 hPa SSW 15.6 km/h 15.6 km/h 69 % 0 mm
09:37 -8.2 °C -11.4 °C 34452.6 hPa South 2.6 km/h 18.2 km/h 69 % 0 mm
09:42 -8.1 °C -11.3 °C 34452.6 hPa WSW 10.3 km/h 18.2 km/h 69 % 0 mm
09:47 -7.9 °C -11.2 °C 34452.6 hPa SSW 7.7 km/h 18.2 km/h 69 % 0 mm
09:52 -7.8 °C -11.3 °C 34442.4 hPa SW 5.1 km/h 15.6 km/h 67 % 0 mm
09:57 -7.8 °C -11.2 °C 34442.4 hPa SSW 10.3 km/h 18.2 km/h 68 % 0 mm
10:02 -7.8 °C -11 °C 34442.4 hPa ENE 7.7 km/h 18.2 km/h 69 % 0 mm
10:12 -7.6 °C -11.2 °C 34442.4 hPa Calm   15.6 km/h 66 % 0 mm
10:17 -7.6 °C -11 °C 34442.4 hPa SSW 5.1 km/h 15.6 km/h 67 % 0 mm
10:22 -7.4 °C -11.1 °C 34442.4 hPa SW 5.1 km/h 15.6 km/h 66 % 0 mm
10:27 -7.4 °C -11 °C 34442.4 hPa Calm   12.9 km/h 66 % 0 mm
10:32 -7.3 °C -11.6 °C 34442.4 hPa SSW 20.8 km/h 20.8 km/h 61 % 0 mm
10:37 -7.4 °C -11.7 °C 34442.4 hPa SSW 5.1 km/h 23.3 km/h 61 % 0 mm
10:42 -7.3 °C -11.6 °C 34428.8 hPa SSW 7.7 km/h 23.3 km/h 61 % 0 mm
10:47 -7.1 °C -11.3 °C 34428.8 hPa SSW 15.6 km/h 23.3 km/h 62 % 0 mm
10:52 -7.2 °C -11.6 °C 34428.8 hPa WSW 5.1 km/h 20.8 km/h 60 % 0 mm
10:57 -7 °C -11.3 °C 34418.7 hPa SW 12.9 km/h 18.2 km/h 61 % 0 mm
11:02 -7 °C -11.3 °C 34418.7 hPa SSW 2.6 km/h 23.3 km/h 61 % 0 mm
11:12 -6.9 °C -11.8 °C 34418.7 hPa SW 15.6 km/h 23.3 km/h 57 % 0 mm
11:17 -6.9 °C -11.9 °C 34418.7 hPa SSW 15.6 km/h 25.9 km/h 56 % 0 mm
11:22 -6.8 °C -12 °C 34418.7 hPa SSW 18.2 km/h 25.9 km/h 55 % 0 mm
11:27 -6.8 °C -12.2 °C 34418.7 hPa SSW 12.9 km/h 25.9 km/h 54 % 0 mm
11:32 -6.7 °C -11.6 °C 34405.1 hPa South 7.7 km/h 23.3 km/h 57 % 0 mm
11:37 -6.5 °C -11.2 °C 34405.1 hPa South 7.7 km/h 23.3 km/h 58 % 0 mm
11:42 -6.6 °C -11.7 °C 34418.7 hPa SW 12.9 km/h 18.2 km/h 55 % 0 mm
11:47 -6.7 °C -11.7 °C 34418.7 hPa WSW 7.7 km/h 20.8 km/h 56 % 0 mm
11:52 -6.8 °C -11.8 °C 34418.7 hPa SW 10.3 km/h 23.3 km/h 56 % 0 mm
11:57 -6.7 °C -11.4 °C 34418.7 hPa South 7.7 km/h 23.3 km/h 58 % 0 mm
12:02 -6.5 °C -11.4 °C 34405.1 hPa WSW 18.2 km/h 31.1 km/h 57 % 0 mm
12:07 -6.5 °C -11.8 °C 34405.1 hPa SW 7.7 km/h 31.1 km/h 54 % 0 mm
12:12 -6.4 °C -11.6 °C 34405.1 hPa SSW 12.9 km/h 31.1 km/h 55 % 0 mm
12:17 -6.3 °C -11.5 °C 34405.1 hPa WSW 15.6 km/h 25.9 km/h 55 % 0 mm
12:22 -6.3 °C -11.5 °C 34405.1 hPa West 2.6 km/h 25.9 km/h 55 % 0 mm
12:27 -6.6 °C -12.1 °C 34405.1 hPa SW 12.9 km/h 20.8 km/h 53 % 0 mm
12:32 -6.6 °C -12.2 °C 34405.1 hPa NW 2.6 km/h 20.8 km/h 52 % 0 mm
12:42 -6.7 °C -11.9 °C 34405.1 hPa SSW 20.8 km/h 20.8 km/h 55 % 0 mm
12:47 -6.6 °C -12.1 °C 34405.1 hPa SW 15.6 km/h 20.8 km/h 53 % 0 mm
12:52 -6.5 °C -11.8 °C 34405.1 hPa SW 15.6 km/h 20.8 km/h 54 % 0 mm
12:57 -6.6 °C -12.4 °C 34405.1 hPa WSW 12.9 km/h 25.9 km/h 51 % 0 mm
13:02 -6.7 °C -12.1 °C 34395 hPa SW 12.9 km/h 25.9 km/h 54 % 0 mm
13:07 -6.7 °C -11.6 °C 34395 hPa WSW 7.7 km/h 23.3 km/h 57 % 0 mm
13:12 -6.8 °C -11.3 °C 34395 hPa SW 12.9 km/h 23.3 km/h 59 % 0 mm
13:17 -6.7 °C -11.3 °C 34395 hPa SW 7.7 km/h 20.8 km/h 59 % 0 mm
13:22 -6.5 °C -11.4 °C 34395 hPa South 12.9 km/h 20.8 km/h 57 % 0 mm
13:27 -6.3 °C -11.9 °C 34395 hPa WSW 15.6 km/h 20.8 km/h 52 % 0 mm
13:32 -6.2 °C -11.7 °C 34395 hPa SSW 20.8 km/h 20.8 km/h 53 % 0 mm
13:37 -6.2 °C -11.7 °C 34395 hPa SSW 18.2 km/h 28.5 km/h 53 % 0 mm
13:42 -6.3 °C -12 °C 34384.8 hPa SW 5.1 km/h 28.5 km/h 52 % 0 mm
13:47 -6.4 °C -11.9 °C 34384.8 hPa SSW 18.2 km/h 28.5 km/h 53 % 0 mm
13:52 -6.5 °C -11.8 °C 34384.8 hPa SSW 7.7 km/h 23.3 km/h 54 % 0 mm
13:57 -6.4 °C -11.6 °C 34384.8 hPa SSW 2.6 km/h 23.3 km/h 55 % 0 mm
14:02 -6.3 °C -11.4 °C 34371.3 hPa SW 2.6 km/h 23.3 km/h 56 % 0 mm
14:07 -6.4 °C -11.9 °C 34371.3 hPa NW 7.7 km/h 18.2 km/h 53 % 0 mm
14:12 -6.4 °C -11.6 °C 34371.3 hPa SW 18.2 km/h 18.2 km/h 55 % 0 mm
14:17 -6.6 °C -11.4 °C 34371.3 hPa West 7.7 km/h 25.9 km/h 57 % 0 mm
14:22 -6.3 °C -11.2 °C 34371.3 hPa WSW 20.8 km/h 25.9 km/h 57 % 0 mm
14:27 -6.3 °C -11.8 °C 34371.3 hPa WSW 10.3 km/h 31.1 km/h 53 % 0 mm
14:32 -6.2 °C -11.7 °C 34371.3 hPa WSW 7.7 km/h 31.1 km/h 53 % 0 mm
14:37 -6.2 °C -11.6 °C 34361.1 hPa WSW 23.3 km/h 31.1 km/h 54 % 0 mm
14:42 -6.1 °C -11.4 °C 34361.1 hPa SW 2.6 km/h 31.1 km/h 54 % 0 mm
14:47 -6 °C -11.6 °C 34361.1 hPa West 10.3 km/h 31.1 km/h 53 % 0 mm
14:52 -5.9 °C -10.9 °C 34347.6 hPa SW 12.9 km/h 31.1 km/h 56 % 0 mm
14:57 -5.8 °C -11.7 °C 34347.6 hPa West 7.7 km/h 31.1 km/h 51 % 0 mm
15:02 -5.8 °C -11.3 °C 34347.6 hPa SW 36.2 km/h 36.2 km/h 53 % 0 mm
15:07 -5.7 °C -11.4 °C 34347.6 hPa South 5.1 km/h 36.2 km/h 52 % 0 mm
15:12 -5.9 °C -11.7 °C 34347.6 hPa SW 10.3 km/h 36.2 km/h 52 % 0 mm
15:17 -6 °C -11.4 °C 34347.6 hPa West 5.1 km/h 36.2 km/h 54 % 0 mm
15:22 -6 °C -11.7 °C 34347.6 hPa WSW 10.3 km/h 33.6 km/h 52 % 0 mm
15:27 -5.9 °C -11.7 °C 34347.6 hPa SW 33.6 km/h 33.6 km/h 52 % 0 mm
15:32 -6 °C -11.8 °C 34347.6 hPa West 18.2 km/h 38.8 km/h 51 % 0 mm
15:42 -5.7 °C -12.2 °C 34337.4 hPa WSW 25.9 km/h 38.8 km/h 47 % 0 mm
15:47 -5.5 °C -12.3 °C 34337.4 hPa West 12.9 km/h 33.6 km/h 46 % 0 mm
15:52 -5.5 °C -12.1 °C 34337.4 hPa SW 25.9 km/h 36.2 km/h 47 % 0 mm
15:57 -5.5 °C -11.7 °C 34337.4 hPa West 20.8 km/h 36.2 km/h 49 % 0 mm
16:02 -5.6 °C -12 °C 34337.4 hPa WSW 15.6 km/h 38.8 km/h 48 % 0 mm
16:07 -5.8 °C -11.7 °C 34337.4 hPa SW 18.2 km/h 38.8 km/h 51 % 0 mm
16:12 -5.8 °C -11.6 °C 34327.3 hPa South 12.9 km/h 38.8 km/h 52 % 0 mm
16:17 -5.8 °C -11.8 °C 34327.3 hPa SW 12.9 km/h 31.1 km/h 50 % 0 mm
16:22 -5.6 °C -11.7 °C 34327.3 hPa SW 10.3 km/h 31.1 km/h 50 % 0 mm
16:27 -5.6 °C -11.6 °C 34327.3 hPa WSW 12.9 km/h 28.5 km/h 50 % 0 mm
16:32 -5.7 °C -11.7 °C 34313.7 hPa West 10.3 km/h 28.5 km/h 50 % 0 mm
16:37 -5.8 °C -12 °C 34313.7 hPa SW 18.2 km/h 33.6 km/h 49 % 0 mm
16:42 -5.8 °C -11.6 °C 34313.7 hPa WSW 2.6 km/h 33.6 km/h 52 % 0 mm
16:47 -5.7 °C -11.9 °C 34313.7 hPa WSW 7.7 km/h 33.6 km/h 49 % 0 mm
16:52 -5.6 °C -11.5 °C 34303.6 hPa SSW 5.1 km/h 23.3 km/h 51 % 0 mm
16:57 -5.5 °C -11.9 °C 34303.6 hPa SW 18.2 km/h 33.6 km/h 48 % 0 mm
17:02 -5.5 °C -12.1 °C 34303.6 hPa SSW 10.3 km/h 33.6 km/h 47 % 0 mm
17:12 -5.4 °C -11.6 °C 34303.6 hPa SW 18.2 km/h 36.2 km/h 49 % 0 mm
17:17 -5.4 °C -12 °C 34293.4 hPa WSW 15.6 km/h 36.2 km/h 47 % 0 mm
17:22 -5.4 °C -12 °C 34293.4 hPa SW 25.9 km/h 36.2 km/h 47 % 0 mm
17:27 -5.5 °C -12.1 °C 34293.4 hPa SW 12.9 km/h 33.6 km/h 47 % 0 mm
17:32 -5.6 °C -11.9 °C 34293.4 hPa SSW 15.6 km/h 36.2 km/h 48 % 0 mm
17:37 -5.6 °C -12.3 °C 34293.4 hPa WSW 18.2 km/h 36.2 km/h 46 % 0 mm
17:42 -5.5 °C -12.1 °C 34293.4 hPa WSW 18.2 km/h 31.1 km/h 47 % 0 mm
17:47 -5.4 °C -12 °C 34293.4 hPa West 25.9 km/h 33.6 km/h 47 % 0 mm
17:52 -5.5 °C -11.7 °C 34293.4 hPa SW 7.7 km/h 33.6 km/h 49 % 0 mm
17:57 -5.6 °C -12 °C 34279.9 hPa West 15.6 km/h 33.6 km/h 48 % 0 mm
18:02 -5.6 °C -11.8 °C 34279.9 hPa SW 5.1 km/h 31.1 km/h 49 % 0 mm
18:07 -5.8 °C -12.2 °C 34279.9 hPa SW 7.7 km/h 25.9 km/h 48 % 0 mm
18:12 -5.7 °C -11.9 °C 34269.7 hPa SW 10.3 km/h 25.9 km/h 49 % 0 mm
18:17 -5.7 °C -11.8 °C 34269.7 hPa SW 20.8 km/h 25.9 km/h 50 % 0 mm
18:22 -5.8 °C -11.8 °C 34269.7 hPa SW 18.2 km/h 36.2 km/h 50 % 0 mm
18:32 -5.9 °C -11.6 °C 34269.7 hPa SW 12.9 km/h 36.2 km/h 52 % 0 mm
18:42 -5.7 °C -11.4 °C 34256.2 hPa SSE 20.8 km/h 31.1 km/h 52 % 0 mm
18:47 -5.8 °C -11.8 °C 34256.2 hPa SW 28.5 km/h 31.1 km/h 50 % 0 mm
18:52 -6 °C -11.8 °C 34256.2 hPa WSW 18.2 km/h 36.2 km/h 51 % 0 mm
18:57 -6.1 °C -11.9 °C 34246 hPa WSW 15.6 km/h 36.2 km/h 51 % 0 mm
19:02 -6.2 °C -11.6 °C 34256.2 hPa SSE 7.7 km/h 36.2 km/h 54 % 0 mm
19:07 -6 °C -11.1 °C 34246 hPa SW 15.6 km/h 28.5 km/h 56 % 0 mm
19:12 -6.1 °C -11.5 °C 34246 hPa West 15.6 km/h 28.5 km/h 54 % 0 mm
19:17 -6.2 °C -11.7 °C 34246 hPa WSW 12.9 km/h 33.6 km/h 53 % 0 mm
19:22 -6.2 °C -11.6 °C 34246 hPa SSW 7.7 km/h 33.6 km/h 54 % 0 mm
19:27 -6.3 °C -11.5 °C 34246 hPa SW 5.1 km/h 28.5 km/h 55 % 0 mm
19:32 -6.3 °C -11.1 °C 34235.8 hPa SW 7.7 km/h 20.8 km/h 58 % 0 mm
19:37 -6.4 °C -11.1 °C 34235.8 hPa SSW 12.9 km/h 20.8 km/h 59 % 0 mm
19:42 -6.4 °C -10.9 °C 34235.8 hPa SW 10.3 km/h 20.8 km/h 60 % 0 mm
19:47 -6.5 °C -10.9 °C 34235.8 hPa SW 10.3 km/h 20.8 km/h 60 % 0 mm
19:52 -6.6 °C -10.9 °C 34235.8 hPa WSW 12.9 km/h 20.8 km/h 61 % 0 mm
19:57 -6.6 °C -10.9 °C 34235.8 hPa SW 7.7 km/h 20.8 km/h 61 % 0 mm
20:02 -6.7 °C -10.6 °C 34235.8 hPa SW 7.7 km/h 18.2 km/h 64 % 0 mm
20:07 -6.8 °C -10.8 °C 34222.3 hPa SSW 5.1 km/h 18.2 km/h 63 % 0 mm
20:12 -6.8 °C -10.8 °C 34222.3 hPa SW 5.1 km/h 18.2 km/h 63 % 0 mm
20:17 -6.6 °C -10.8 °C 34222.3 hPa SSW 15.6 km/h 18.2 km/h 62 % 0 mm
20:22 -6.6 °C -10.9 °C 34222.3 hPa SW 10.3 km/h 18.2 km/h 61 % 0 mm
20:27 -6.6 °C -10.7 °C 34222.3 hPa SW 15.6 km/h 18.2 km/h 63 % 0 mm
20:32 -6.8 °C -10.8 °C 34212.1 hPa SSW 10.3 km/h 18.2 km/h 63 % 0 mm
20:37 -6.8 °C -10.8 °C 34212.1 hPa SSW 15.6 km/h 18.2 km/h 63 % 0 mm
20:42 -6.9 °C -10.8 °C 34212.1 hPa SW 12.9 km/h 18.2 km/h 64 % 0 mm
20:52 -7.2 °C -10.9 °C 34212.1 hPa SW 10.3 km/h 18.2 km/h 65 % 0 mm
20:57 -7.2 °C -10.9 °C 34212.1 hPa SW 12.9 km/h 12.9 km/h 65 % 0 mm
21:02 -7.3 °C -11 °C 34212.1 hPa SW 2.6 km/h 18.2 km/h 65 % 0 mm
21:07 -7.3 °C -11.1 °C 34212.1 hPa WSW 10.3 km/h 18.2 km/h 65 % 0 mm
21:12 -7.4 °C -11.1 °C 34198.6 hPa WSW 10.3 km/h 18.2 km/h 65 % 0 mm
21:17 -7.4 °C -10.9 °C 34198.6 hPa SW 5.1 km/h 15.6 km/h 67 % 0 mm
21:22 -7.7 °C -10.8 °C 34198.6 hPa SSW 7.7 km/h 15.6 km/h 70 % 0 mm
21:32 -8.1 °C -10.9 °C 34198.6 hPa SSW 10.3 km/h 10.3 km/h 72 % 0 mm
21:37 -8.1 °C -10.9 °C 34198.6 hPa SW 5.1 km/h 12.9 km/h 72 % 0 mm
21:42 -8.1 °C -11.1 °C 34198.6 hPa SSW 5.1 km/h 12.9 km/h 71 % 0 mm
21:47 -8.2 °C -11 °C 34198.6 hPa SSW 2.6 km/h 12.9 km/h 72 % 0 mm
21:52 -8.3 °C -11 °C 34198.6 hPa SW 5.1 km/h 12.9 km/h 73 % 0 mm
21:57 -8.3 °C -11.1 °C 34198.6 hPa WSW 7.7 km/h 12.9 km/h 72 % 0 mm
22:02 -8.3 °C -11.2 °C 34198.6 hPa SSW 2.6 km/h 15.6 km/h 71 % 0 mm
22:12 -8.5 °C -11.2 °C 34188.4 hPa SSW 2.6 km/h 15.6 km/h 73 % 0 mm
22:17 -8.7 °C -11.1 °C 34188.4 hPa SSW 5.1 km/h 10.3 km/h 75 % 0 mm
22:22 -8.8 °C -11.2 °C 34188.4 hPa SW 5.1 km/h 7.7 km/h 76 % 0 mm
22:27 -8.9 °C -11.1 °C 34188.4 hPa SSW 5.1 km/h 7.7 km/h 77 % 0 mm
22:32 -8.9 °C -11.2 °C 34188.4 hPa SSW 2.6 km/h 7.7 km/h 77 % 0 mm
22:37 -9 °C -11.2 °C 34198.6 hPa SW 2.6 km/h 7.7 km/h 77 % 0 mm
22:42 -9 °C -11.2 °C 34188.4 hPa SW 5.1 km/h 5.1 km/h 77 % 0 mm
22:52 -9 °C -11.3 °C 34198.6 hPa SSW 5.1 km/h 10.3 km/h 76 % 0 mm
22:57 -9.1 °C -11.3 °C 34188.4 hPa Calm   10.3 km/h 77 % 0 mm
23:02 -9.2 °C -11.4 °C 34188.4 hPa Calm   7.7 km/h 77 % 0 mm
23:12 -9.4 °C -11.4 °C 34178.3 hPa Calm   5.1 km/h 79 % 0 mm
23:17 -9.5 °C -11.5 °C 34178.3 hPa Calm   5.1 km/h 79 % 0 mm
23:22 -9.6 °C -11.5 °C 34178.3 hPa Calm   2.6 km/h 80 % 0 mm
23:27 -9.7 °C -11.5 °C 34178.3 hPa SSW 2.6 km/h 2.6 km/h 81 % 0 mm
23:32 -9.8 °C -11.4 °C 34164.7 hPa SSW 5.1 km/h 5.1 km/h 82 % 0 mm
23:37 -9.8 °C -11.4 °C 34164.7 hPa SSW 5.1 km/h 10.3 km/h 82 % 0 mm
23:42 -9.8 °C -11.5 °C 34164.7 hPa Calm   10.3 km/h 82 % 0 mm
23:47 -9.8 °C -11.5 °C 34154.6 hPa SW 5.1 km/h 10.3 km/h 82 % 0 mm
23:52 -9.8 °C -11.5 °C 34154.6 hPa SW 5.1 km/h 10.3 km/h 82 % 0 mm
23:57 -9.9 °C -11.4 °C 34154.6 hPa SSW 2.6 km/h 10.3 km/h 83 % 0 mm
Meteo18
Compliments of Weather Underground - 4 mb

Script developed by  Jim McMurry - jmcmurry@mwt.net Adapted for the template by  Wim van der Kuil - Leuven-Template.eu

You find our weather info also at:

European Weather Network

Weather Underground

Equipment we use:

Weather-station
Davis Vue

Weather-program
Meteobridge

Weather-server
Raspberry PI 2 B+

Provider
1 and 1

Davis Vue

Meteobridge

Raspberry PI 2 B+

1 and 1